sensor_id;sensor_type;location;lat;lon;timestamp;pressure;altitude;pressure_sealevel;temperature;humidity
50650;BME280;36621;60.058;30.346;2023-05-19T00:02:29;102480.00;;;9.72;57.44
50650;BME280;36621;60.058;30.346;2023-05-19T00:10:05;102467.78;;;9.56;55.99
50650;BME280;36621;60.058;30.346;2023-05-19T00:17:37;102460.78;;;9.42;55.56
50650;BME280;36621;60.058;30.346;2023-05-19T00:25:13;102493.22;;;9.50;55.60
50650;BME280;36621;60.058;30.346;2023-05-19T00:32:45;102491.63;;;9.42;55.28
50650;BME280;36621;60.058;30.346;2023-05-19T00:40:18;102510.06;;;9.40;54.42
50650;BME280;36621;60.058;30.346;2023-05-19T00:47:50;102483.38;;;9.24;54.54
50650;BME280;36621;60.058;30.346;2023-05-19T00:55:25;102512.56;;;9.42;54.06
50650;BME280;36621;60.058;30.346;2023-05-19T01:02:58;102520.41;;;9.31;54.51
50650;BME280;36621;60.058;30.346;2023-05-19T01:10:31;102520.06;;;9.21;54.29
50650;BME280;36621;60.058;30.346;2023-05-19T01:18:07;102532.81;;;9.27;54.31
50650;BME280;36621;60.058;30.346;2023-05-19T01:26:10;102538.34;;;9.46;54.89
50650;BME280;36621;60.058;30.346;2023-05-19T01:33:48;102498.13;;;9.09;55.01
50650;BME280;36621;60.058;30.346;2023-05-19T01:41:21;102533.59;;;9.66;54.82
50650;BME280;36621;60.058;30.346;2023-05-19T01:48:56;102532.75;;;10.53;52.19
50650;BME280;36621;60.058;30.346;2023-05-19T01:56:37;102560.63;;;10.92;50.35
50650;BME280;36621;60.058;30.346;2023-05-19T02:04:17;102582.00;;;11.14;50.35
50650;BME280;36621;60.058;30.346;2023-05-19T02:11:53;102582.63;;;11.58;48.71
50650;BME280;36621;60.058;30.346;2023-05-19T02:19:30;102586.75;;;11.49;48.87
50650;BME280;36621;60.058;30.346;2023-05-19T02:27:03;102588.69;;;11.72;48.37
50650;BME280;36621;60.058;30.346;2023-05-19T02:34:35;102588.16;;;12.06;46.60
50650;BME280;36621;60.058;30.346;2023-05-19T02:42:09;102582.41;;;14.38;40.86
50650;BME280;36621;60.058;30.346;2023-05-19T02:49:43;102603.06;;;15.84;37.99
50650;BME280;36621;60.058;30.346;2023-05-19T02:57:15;102588.13;;;13.97;42.15
50650;BME280;36621;60.058;30.346;2023-05-19T03:04:48;102585.09;;;12.90;44.25
50650;BME280;36621;60.058;30.346;2023-05-19T03:12:20;102605.94;;;12.15;45.02
50650;BME280;36621;60.058;30.346;2023-05-19T03:19:53;102623.53;;;12.07;45.77
50650;BME280;36621;60.058;30.346;2023-05-19T03:27:25;102639.50;;;12.22;44.89
50650;BME280;36621;60.058;30.346;2023-05-19T03:34:58;102645.59;;;12.48;43.78
50650;BME280;36621;60.058;30.346;2023-05-19T03:42:31;102641.28;;;12.16;44.70
50650;BME280;36621;60.058;30.346;2023-05-19T03:50:05;102651.13;;;12.77;43.25
50650;BME280;36621;60.058;30.346;2023-05-19T03:57:55;102657.81;;;12.69;43.62
50650;BME280;36621;60.058;30.346;2023-05-19T04:05:28;102672.50;;;12.51;43.66
50650;BME280;36621;60.058;30.346;2023-05-19T04:13:00;102652.38;;;12.33;44.58
50650;BME280;36621;60.058;30.346;2023-05-19T04:20:33;102680.81;;;12.92;43.02
50650;BME280;36621;60.058;30.346;2023-05-19T04:28:05;102673.94;;;13.18;41.52
50650;BME280;36621;60.058;30.346;2023-05-19T04:35:39;102683.25;;;13.58;41.31
50650;BME280;36621;60.058;30.346;2023-05-19T04:43:13;102686.66;;;14.11;40.47
50650;BME280;36621;60.058;30.346;2023-05-19T04:50:48;102688.41;;;14.51;39.52
50650;BME280;36621;60.058;30.346;2023-05-19T04:58:22;102683.00;;;14.39;40.46
50650;BME280;36621;60.058;30.346;2023-05-19T05:05:57;102685.06;;;15.05;38.96
50650;BME280;36621;60.058;30.346;2023-05-19T05:13:30;102659.63;;;18.69;32.33
50650;BME280;36621;60.058;30.346;2023-05-19T05:21:04;102684.66;;;21.78;26.99
50650;BME280;36621;60.058;30.346;2023-05-19T05:28:38;102677.63;;;20.51;27.27
50650;BME280;36621;60.058;30.346;2023-05-19T05:36:11;102692.13;;;19.29;28.83
50650;BME280;36621;60.058;30.346;2023-05-19T05:43:44;102702.56;;;21.47;24.87
50650;BME280;36621;60.058;30.346;2023-05-19T05:51:20;102707.72;;;22.30;24.56
50650;BME280;36621;60.058;30.346;2023-05-19T05:58:52;102708.19;;;22.37;23.65
50650;BME280;36621;60.058;30.346;2023-05-19T06:06:26;102715.22;;;23.32;22.75
50650;BME280;36621;60.058;30.346;2023-05-19T06:14:01;102714.97;;;18.89;29.20
50650;BME280;36621;60.058;30.346;2023-05-19T06:21:53;102704.88;;;16.76;33.33
50650;BME280;36621;60.058;30.346;2023-05-19T06:29:25;102724.94;;;15.74;34.83
50650;BME280;36621;60.058;30.346;2023-05-19T06:37:02;102730.75;;;15.06;35.06
50650;BME280;36621;60.058;30.346;2023-05-19T06:44:35;102724.47;;;14.20;37.70
50650;BME280;36621;60.058;30.346;2023-05-19T06:52:08;102726.41;;;14.20;37.76
50650;BME280;36621;60.058;30.346;2023-05-19T06:59:41;102711.22;;;14.00;36.05
50650;BME280;36621;60.058;30.346;2023-05-19T07:07:15;102722.81;;;14.36;37.26
50650;BME280;36621;60.058;30.346;2023-05-19T07:14:48;102706.25;;;14.65;36.42
50650;BME280;36621;60.058;30.346;2023-05-19T07:22:22;102727.28;;;14.59;36.13
50650;BME280;36621;60.058;30.346;2023-05-19T07:29:54;102732.31;;;14.80;36.13
50650;BME280;36621;60.058;30.346;2023-05-19T07:37:27;102723.94;;;15.14;36.28
50650;BME280;36621;60.058;30.346;2023-05-19T07:44:59;102720.06;;;15.09;35.81
50650;BME280;36621;60.058;30.346;2023-05-19T07:52:36;102746.00;;;15.36;34.92
50650;BME280;36621;60.058;30.346;2023-05-19T08:00:09;102738.50;;;15.31;35.07
50650;BME280;36621;60.058;30.346;2023-05-19T08:07:48;102738.81;;;15.35;35.22
50650;BME280;36621;60.058;30.346;2023-05-19T08:15:20;102738.81;;;15.35;34.28
50650;BME280;36621;60.058;30.346;2023-05-19T08:22:53;102712.91;;;15.08;35.75
50650;BME280;36621;60.058;30.346;2023-05-19T08:30:25;102739.59;;;15.30;33.23
50650;BME280;36621;60.058;30.346;2023-05-19T08:37:58;102717.25;;;15.04;32.82
50650;BME280;36621;60.058;30.346;2023-05-19T08:45:31;102728.38;;;15.37;31.84
50650;BME280;36621;60.058;30.346;2023-05-19T08:53:09;102734.00;;;15.25;32.29
50650;BME280;36621;60.058;30.346;2023-05-19T09:00:44;102736.63;;;14.92;32.73
50650;BME280;36621;60.058;30.346;2023-05-19T09:08:17;102753.22;;;15.20;31.99
50650;BME280;36621;60.058;30.346;2023-05-19T09:15:51;102722.56;;;15.33;32.13
50650;BME280;36621;60.058;30.346;2023-05-19T09:23:26;102727.63;;;15.41;31.56
50650;BME280;36621;60.058;30.346;2023-05-19T09:31:00;102727.09;;;15.44;31.62
50650;BME280;36621;60.058;30.346;2023-05-19T09:38:33;102721.19;;;15.58;32.42
50650;BME280;36621;60.058;30.346;2023-05-19T09:46:07;102737.16;;;15.56;31.29
50650;BME280;36621;60.058;30.346;2023-05-19T09:53:40;102728.63;;;15.57;31.64
50650;BME280;36621;60.058;30.346;2023-05-19T10:01:12;102727.84;;;15.62;31.58
50650;BME280;36621;60.058;30.346;2023-05-19T10:08:46;102717.25;;;15.49;31.74
50650;BME280;36621;60.058;30.346;2023-05-19T10:16:20;102708.66;;;15.67;32.03
50650;BME280;36621;60.058;30.346;2023-05-19T10:23:57;102724.78;;;15.80;31.17
50650;BME280;36621;60.058;30.346;2023-05-19T10:31:30;102714.38;;;15.66;31.22
50650;BME280;36621;60.058;30.346;2023-05-19T10:39:08;102692.22;;;15.77;31.93
50650;BME280;36621;60.058;30.346;2023-05-19T10:46:43;102711.88;;;16.13;31.15
50650;BME280;36621;60.058;30.346;2023-05-19T10:54:16;102692.25;;;16.05;31.33
50650;BME280;36621;60.058;30.346;2023-05-19T11:01:49;102715.44;;;15.82;31.07
50650;BME280;36621;60.058;30.346;2023-05-19T11:09:22;102706.81;;;15.78;31.20
50650;BME280;36621;60.058;30.346;2023-05-19T11:16:57;102717.59;;;16.07;31.81
50650;BME280;36621;60.058;30.346;2023-05-19T11:24:33;102723.91;;;16.02;31.27
50650;BME280;36621;60.058;30.346;2023-05-19T11:32:06;102715.13;;;16.10;30.79
50650;BME280;36621;60.058;30.346;2023-05-19T11:39:39;102724.19;;;16.06;30.36
50650;BME280;36621;60.058;30.346;2023-05-19T11:47:11;102719.47;;;16.01;31.25
50650;BME280;36621;60.058;30.346;2023-05-19T11:54:47;102677.06;;;16.02;35.82
50650;BME280;36621;60.058;30.346;2023-05-19T12:02:20;102712.38;;;16.10;37.38
50650;BME280;36621;60.058;30.346;2023-05-19T12:09:53;102710.41;;;16.06;37.73
50650;BME280;36621;60.058;30.346;2023-05-19T12:17:26;102700.59;;;16.15;38.45
50650;BME280;36621;60.058;30.346;2023-05-19T12:24:58;102710.34;;;16.28;38.21
50650;BME280;36621;60.058;30.346;2023-05-19T12:32:33;102715.34;;;16.36;37.88
50650;BME280;36621;60.058;30.346;2023-05-19T12:40:08;102719.22;;;16.35;38.78
50650;BME280;36621;60.058;30.346;2023-05-19T12:47:40;102721.53;;;16.16;38.80
50650;BME280;36621;60.058;30.346;2023-05-19T12:55:13;102729.53;;;16.18;38.96
50650;BME280;36621;60.058;30.346;2023-05-19T13:02:57;102742.22;;;16.19;38.45
50650;BME280;36621;60.058;30.346;2023-05-19T13:10:31;102710.41;;;15.78;39.25
50650;BME280;36621;60.058;30.346;2023-05-19T13:18:05;102725.78;;;15.74;38.92
50650;BME280;36621;60.058;30.346;2023-05-19T13:25:39;102743.56;;;15.89;38.71
50650;BME280;36621;60.058;30.346;2023-05-19T13:33:11;102733.94;;;15.86;38.94
50650;BME280;36621;60.058;30.346;2023-05-19T13:40:44;102704.75;;;15.63;38.13
50650;BME280;36621;60.058;30.346;2023-05-19T13:48:16;102730.91;;;15.66;39.10
50650;BME280;36621;60.058;30.346;2023-05-19T13:55:52;102723.22;;;15.68;39.81
50650;BME280;36621;60.058;30.346;2023-05-19T14:03:25;102680.84;;;15.41;39.76
50650;BME280;36621;60.058;30.346;2023-05-19T14:10:59;102742.63;;;15.78;39.91
50650;BME280;36621;60.058;30.346;2023-05-19T14:18:31;102747.50;;;15.71;39.96
50650;BME280;36621;60.058;30.346;2023-05-19T14:26:05;102732.41;;;15.51;40.18
50650;BME280;36621;60.058;30.346;2023-05-19T14:33:37;102713.78;;;15.36;40.86
50650;BME280;36621;60.058;30.346;2023-05-19T14:41:14;102732.28;;;15.41;40.98
50650;BME280;36621;60.058;30.346;2023-05-19T14:48:46;102722.19;;;15.24;41.84
50650;BME280;36621;60.058;30.346;2023-05-19T14:56:19;102762.28;;;15.42;41.62
50650;BME280;36621;60.058;30.346;2023-05-19T15:03:52;102759.81;;;15.41;41.28
50650;BME280;36621;60.058;30.346;2023-05-19T15:11:24;102755.31;;;15.35;41.67
50650;BME280;36621;60.058;30.346;2023-05-19T15:18:56;102766.84;;;15.32;42.19
50650;BME280;36621;60.058;30.346;2023-05-19T15:26:29;102775.94;;;15.32;41.56
50650;BME280;36621;60.058;30.346;2023-05-19T15:34:01;102774.72;;;15.23;41.58
50650;BME280;36621;60.058;30.346;2023-05-19T15:41:34;102783.28;;;15.26;40.88
50650;BME280;36621;60.058;30.346;2023-05-19T15:49:06;102749.44;;;15.04;40.98
50650;BME280;36621;60.058;30.346;2023-05-19T15:56:39;102765.69;;;15.05;41.71
50650;BME280;36621;60.058;30.346;2023-05-19T16:04:11;102722.47;;;14.84;41.71
50650;BME280;36621;60.058;30.346;2023-05-19T16:11:43;102793.97;;;15.23;41.56
50650;BME280;36621;60.058;30.346;2023-05-19T16:19:15;102800.25;;;15.18;41.64
50650;BME280;36621;60.058;30.346;2023-05-19T16:26:48;102803.16;;;15.11;42.81
50650;BME280;36621;60.058;30.346;2023-05-19T16:34:23;102767.78;;;14.81;42.42
50650;BME280;36621;60.058;30.346;2023-05-19T16:41:55;102810.00;;;14.92;42.67
50650;BME280;36621;60.058;30.346;2023-05-19T16:49:28;102767.81;;;14.64;42.02
50650;BME280;36621;60.058;30.346;2023-05-19T16:57:00;102809.94;;;15.04;42.51
50650;BME280;36621;60.058;30.346;2023-05-19T17:04:33;102771.44;;;15.26;41.71
50650;BME280;36621;60.058;30.346;2023-05-19T17:12:07;102814.19;;;15.95;40.84
50650;BME280;36621;60.058;30.346;2023-05-19T17:19:41;102814.91;;;16.12;40.31
50650;BME280;36621;60.058;30.346;2023-05-19T17:27:14;102786.00;;;15.88;40.83
50650;BME280;36621;60.058;30.346;2023-05-19T17:34:46;102805.13;;;15.77;40.63
50650;BME280;36621;60.058;30.346;2023-05-19T17:42:19;102817.22;;;15.32;41.69
50650;BME280;36621;60.058;30.346;2023-05-19T17:49:51;102783.78;;;14.67;42.39
50650;BME280;36621;60.058;30.346;2023-05-19T17:57:24;102810.13;;;14.63;43.14
50650;BME280;36621;60.058;30.346;2023-05-19T18:04:59;102797.25;;;14.35;43.73
50650;BME280;36621;60.058;30.346;2023-05-19T18:12:35;102814.63;;;14.23;44.06
50650;BME280;36621;60.058;30.346;2023-05-19T18:20:08;102814.13;;;13.98;43.81
50650;BME280;36621;60.058;30.346;2023-05-19T18:27:41;102792.56;;;13.61;44.75
50650;BME280;36621;60.058;30.346;2023-05-19T18:35:14;102820.38;;;13.52;45.24
50650;BME280;36621;60.058;30.346;2023-05-19T18:42:46;102833.88;;;13.42;46.77
50650;BME280;36621;60.058;30.346;2023-05-19T18:50:18;102827.66;;;13.23;46.35
50650;BME280;36621;60.058;30.346;2023-05-19T18:57:52;102844.97;;;13.12;47.57
50650;BME280;36621;60.058;30.346;2023-05-19T19:05:24;102837.91;;;12.92;47.63
50650;BME280;36621;60.058;30.346;2023-05-19T19:12:57;102849.00;;;12.85;47.93
50650;BME280;36621;60.058;30.346;2023-05-19T19:20:29;102845.25;;;12.68;48.83
50650;BME280;36621;60.058;30.346;2023-05-19T19:28:02;102850.38;;;12.64;49.35
50650;BME280;36621;60.058;30.346;2023-05-19T19:35:34;102858.19;;;12.49;50.08
50650;BME280;36621;60.058;30.346;2023-05-19T19:43:07;102852.44;;;12.39;50.95
50650;BME280;36621;60.058;30.346;2023-05-19T19:50:39;102856.63;;;12.41;51.69
50650;BME280;36621;60.058;30.346;2023-05-19T19:58:12;102852.41;;;12.27;52.11
50650;BME280;36621;60.058;30.346;2023-05-19T20:05:44;102850.53;;;12.09;52.41
50650;BME280;36621;60.058;30.346;2023-05-19T20:13:17;102863.78;;;12.12;53.32
50650;BME280;36621;60.058;30.346;2023-05-19T20:20:49;102867.75;;;11.97;53.72
50650;BME280;36621;60.058;30.346;2023-05-19T20:28:22;102853.72;;;11.87;53.33
50650;BME280;36621;60.058;30.346;2023-05-19T20:35:55;102872.06;;;11.87;54.33
50650;BME280;36621;60.058;30.346;2023-05-19T20:43:27;102873.81;;;11.81;54.26
50650;BME280;36621;60.058;30.346;2023-05-19T20:51:00;102880.56;;;11.78;54.90
50650;BME280;36621;60.058;30.346;2023-05-19T20:58:36;102874.28;;;11.78;55.58
50650;BME280;36621;60.058;30.346;2023-05-19T21:06:08;102888.19;;;11.76;55.98
50650;BME280;36621;60.058;30.346;2023-05-19T21:13:41;102886.44;;;11.82;55.98
50650;BME280;36621;60.058;30.346;2023-05-19T21:21:16;102883.06;;;11.80;55.82
50650;BME280;36621;60.058;30.346;2023-05-19T21:28:49;102892.38;;;11.79;56.62
50650;BME280;36621;60.058;30.346;2023-05-19T21:36:21;102870.31;;;11.55;56.95
50650;BME280;36621;60.058;30.346;2023-05-19T21:43:55;102899.19;;;11.70;57.24
50650;BME280;36621;60.058;30.346;2023-05-19T21:51:27;102911.38;;;11.74;57.56
50650;BME280;36621;60.058;30.346;2023-05-19T21:59:00;102908.31;;;11.63;57.60
50650;BME280;36621;60.058;30.346;2023-05-19T22:06:32;102904.81;;;11.56;57.71
50650;BME280;36621;60.058;30.346;2023-05-19T22:14:05;102896.13;;;11.41;57.49
50650;BME280;36621;60.058;30.346;2023-05-19T22:21:37;102912.16;;;11.37;57.44
50650;BME280;36621;60.058;30.346;2023-05-19T22:29:10;102918.31;;;11.33;58.51
50650;BME280;36621;60.058;30.346;2023-05-19T22:36:45;102922.69;;;11.34;58.11
50650;BME280;36621;60.058;30.346;2023-05-19T22:44:18;102903.88;;;11.25;57.78
50650;BME280;36621;60.058;30.346;2023-05-19T22:51:50;102923.00;;;11.25;57.62
50650;BME280;36621;60.058;30.346;2023-05-19T22:59:23;102916.56;;;11.13;57.64
50650;BME280;36621;60.058;30.346;2023-05-19T23:06:55;102922.31;;;11.05;58.57
50650;BME280;36621;60.058;30.346;2023-05-19T23:14:28;102921.25;;;11.06;57.96
50650;BME280;36621;60.058;30.346;2023-05-19T23:22:00;102909.97;;;10.95;57.68
50650;BME280;36621;60.058;30.346;2023-05-19T23:29:32;102895.19;;;10.78;57.51
50650;BME280;36621;60.058;30.346;2023-05-19T23:37:04;102933.78;;;10.88;58.11
50650;BME280;36621;60.058;30.346;2023-05-19T23:44:37;102927.75;;;10.80;56.88
50650;BME280;36621;60.058;30.346;2023-05-19T23:52:09;102928.44;;;10.75;56.97
50650;BME280;36621;60.058;30.346;2023-05-19T23:59:42;102934.13;;;10.73;57.06
